The Farmers Guide 72-hour weather forecast

Enter Postcode:

Scattered Showers

(06:00)

13.5°C

IP2 0SS

Wind Soil
Date Time Weather Temp Rain Humid Cloud Press (mph) Temp Moist
21/10 06:00 13.5°C 0.6mm 86% 44% 1001mb 20sw (218 degrees) 14.0°C 0.3%
09:00 13.2°C 0.3mm 78% 76% 1001mb 22w (265 degrees) 14.0°C 0.3%
12:00 12.6°C 0.5mm 58% 60% 1003mb 23nww (283 degrees) 13.9°C 0.3%
15:00 11.2°C 0.2mm 57% 78% 1006mb 23nww (289 degrees) 13.9°C 0.3%
18:00 8.4°C 0.2mm 68% 65% 1011mb 21nww (286 degrees) 13.9°C 0.3%
21:00 7.1°C 0.0mm 71% 0% 1015mb 18nww (286 degrees) 13.9°C 0.3%
22/10 00:00 6.6°C 0.0mm 76% 0% 1018mb 16w (276 degrees) 13.9°C 0.3%
03:00 7.4°C 0.0mm 83% 39% 1019mb 16w (279 degrees) 13.9°C 0.3%
06:00 7.3°C 0.0mm 85% 26% 1021mb 15nww (285 degrees) 13.9°C 0.3%
09:00 9.6°C 0.0mm 76% 40% 1022mb 18nww (301 degrees) 13.9°C 0.3%
12:00 12.3°C 0.2mm 64% 56% 1022mb 15nw (315 degrees) 13.9°C 0.3%
15:00 11.7°C 0.0mm 77% 95% 1022mb 10nww (283 degrees) 13.9°C 0.3%
18:00 10.4°C 0.0mm 84% 87% 1022mb 9w (271 degrees) 13.9°C 0.3%
21:00 10.1°C 0.0mm 88% 59% 1022mb 8w (264 degrees) 13.8°C 0.3%
23/10 00:00 9.6°C 0.0mm 93% 69% 1021mb 8sww (254 degrees) 13.8°C 0.3%
03:00 8.4°C 0.0mm 97% 59% 1020mb 9sww (251 degrees) 13.8°C 0.3%
06:00 8.0°C 0.0mm 97% 45% 1020mb 8sww (243 degrees) 13.8°C 0.3%
09:00 10.5°C 0.0mm 89% 34% 1020mb 9sw (228 degrees) 13.8°C 0.3%
12:00 12.6°C 0.0mm 86% 65% 1019mb 9sw (217 degrees) 13.7°C 0.3%
15:00 13.6°C 0.0mm 88% 97% 1018mb 9ssw (211 degrees) 13.7°C 0.3%
18:00 13.6°C 0.2mm 93% 97% 1017mb 9ssw (213 degrees) 13.7°C 0.3%
21:00 13.7°C 0.0mm 94% 84% 1017mb 10sw (219 degrees) 13.7°C 0.3%
24/10 00:00 13.9°C 0.2mm 93% 90% 1016mb 11ssw (209 degrees) 13.7°C 0.3%
03:00 14.3°C 0.3mm 93% 100% 1015mb 11ssw (203 degrees) 13.6°C 0.3%
The Farmers Guide weather forecast is a free service for users of this website.
 
We now carry forecasts based on postcodes. Just enter your postcode and the weather page will display the forecast for the following 72 hours, broken down into three-hour intervals.
 
The forecast data provided for each three-hour period includes: a general graphic showing the likely weather conditions; average temperatures for the period; cloud cover; barometric pressure; wind speed and direction; humidity; and rainfall.
 
An indication of the likely soil temperature and soil moisture will also be displayed for most postcodes, although this data is not available for every area.
 
We hope you will find this service useful and would welcome any feedback from you.
 
 

Search

Read our full October issue here FREE!

Advertisments